KAL214 KSFO-KLAX
Flight info
| Callsign | KAL214 |
|---|---|
| Flight time | 1h 0m |
| Altitude | 31000 |
| Route | WESLA5 SUSEY EBAYE BURGL IRNMN2 |
| Aircraft | B77L/H-SDE1E2E3FGHIJ2J3J4J5M1RWXY/LB1D1 |
Departure
| Time | 2026-05-05 16:39 |
|---|---|
| Airport | San Francisco International Airport (KSFO) |
Arrival
| Time | 2026-05-05 17:40 |
|---|---|
| Airport | Los Angeles International Airport (KLAX) |
| Time | Latitude | Longitude | Altitude | Speed | Heading |
|---|---|---|---|---|---|
| 2026-05-05 16:07 | 37.63761 | -122.38876 | 26 ft | 0 kts | 91° |
| 2026-05-05 16:24 | 37.63761 | -122.38878 | 26 ft | 2 kts | 91° |
| 2026-05-05 16:24 | 37.63766 | -122.38943 | 32 ft | 4 kts | 104° |
| 2026-05-05 16:25 | 37.63774 | -122.38974 | 32 ft | 4 kts | 119° |
| 2026-05-05 16:25 | 37.63798 | -122.39004 | 32 ft | 0 kts | 169° |
| 2026-05-05 16:28 | 37.63792 | -122.39002 | 32 ft | 3 kts | 169° |
| 2026-05-05 16:28 | 37.63759 | -122.38986 | 25 ft | 7 kts | 151° |
| 2026-05-05 16:28 | 37.63712 | -122.38934 | 29 ft | 9 kts | 141° |
| 2026-05-05 16:28 | 37.63657 | -122.38891 | 29 ft | 9 kts | 149° |
| 2026-05-05 16:29 | 37.63601 | -122.38848 | 30 ft | 9 kts | 148° |
| 2026-05-05 16:29 | 37.63545 | -122.38808 | 29 ft | 9 kts | 161° |
| 2026-05-05 16:29 | 37.63486 | -122.38835 | 32 ft | 9 kts | 221° |
| 2026-05-05 16:29 | 37.63445 | -122.38899 | 31 ft | 9 kts | 248° |
| 2026-05-05 16:30 | 37.63429 | -122.38979 | 27 ft | 9 kts | 247° |
| 2026-05-05 16:30 | 37.63403 | -122.39055 | 30 ft | 9 kts | 246° |
| 2026-05-05 16:30 | 37.63372 | -122.39129 | 30 ft | 9 kts | 238° |
| 2026-05-05 16:30 | 37.63320 | -122.39176 | 32 ft | 10 kts | 192° |
| 2026-05-05 16:31 | 37.63251 | -122.39155 | 29 ft | 10 kts | 157° |
| 2026-05-05 16:31 | 37.63184 | -122.39160 | 31 ft | 11 kts | 225° |
| 2026-05-05 16:31 | 37.63148 | -122.39239 | 31 ft | 11 kts | 226° |
| 2026-05-05 16:31 | 37.63078 | -122.39248 | 29 ft | 11 kts | 161° |
| 2026-05-05 16:32 | 37.63009 | -122.39214 | 30 ft | 11 kts | 158° |
| 2026-05-05 16:32 | 37.62952 | -122.39159 | 32 ft | 11 kts | 117° |
| 2026-05-05 16:32 | 37.62914 | -122.39068 | 30 ft | 12 kts | 117° |
| 2026-05-05 16:32 | 37.62873 | -122.38967 | 29 ft | 14 kts | 117° |
| 2026-05-05 16:33 | 37.62826 | -122.38858 | 32 ft | 15 kts | 119° |
| 2026-05-05 16:33 | 37.62777 | -122.38740 | 28 ft | 17 kts | 117° |
| 2026-05-05 16:33 | 37.62704 | -122.38565 | 28 ft | 28 kts | 117° |
| 2026-05-05 16:33 | 37.62593 | -122.38301 | 32 ft | 38 kts | 119° |
| 2026-05-05 16:34 | 37.62523 | -122.38134 | 32 ft | 20 kts | 118° |
| 2026-05-05 16:34 | 37.62458 | -122.37980 | 32 ft | 20 kts | 118° |
| 2026-05-05 16:34 | 37.62393 | -122.37826 | 30 ft | 20 kts | 118° |
| 2026-05-05 16:34 | 37.62329 | -122.37673 | 32 ft | 20 kts | 118° |
| 2026-05-05 16:35 | 37.62263 | -122.37519 | 32 ft | 20 kts | 118° |
| 2026-05-05 16:35 | 37.62199 | -122.37366 | 32 ft | 20 kts | 118° |
| 2026-05-05 16:35 | 37.62135 | -122.37212 | 29 ft | 20 kts | 117° |
| 2026-05-05 16:35 | 37.62071 | -122.37057 | 31 ft | 20 kts | 118° |
| 2026-05-05 16:36 | 37.62008 | -122.36906 | 30 ft | 20 kts | 118° |
| 2026-05-05 16:36 | 37.61943 | -122.36752 | 32 ft | 20 kts | 118° |
| 2026-05-05 16:36 | 37.61879 | -122.36598 | 32 ft | 20 kts | 118° |
| 2026-05-05 16:36 | 37.61815 | -122.36444 | 30 ft | 20 kts | 118° |
| 2026-05-05 16:37 | 37.61750 | -122.36290 | 31 ft | 20 kts | 118° |
| 2026-05-05 16:37 | 37.61685 | -122.36137 | 31 ft | 20 kts | 118° |
| 2026-05-05 16:37 | 37.61620 | -122.35983 | 30 ft | 20 kts | 118° |
| 2026-05-05 16:37 | 37.61556 | -122.35831 | 29 ft | 20 kts | 118° |
| 2026-05-05 16:38 | 37.61483 | -122.35687 | 30 ft | 20 kts | 147° |
| 2026-05-05 16:38 | 37.61379 | -122.35720 | 31 ft | 12 kts | 215° |
| 2026-05-05 16:38 | 37.61394 | -122.35816 | 30 ft | 14 kts | 299° |
| 2026-05-05 16:38 | 37.61490 | -122.36042 | 32 ft | 56 kts | 297° |
| 2026-05-05 16:39 | 37.61782 | -122.36740 | 26 ft | 121 kts | 298° |
| 2026-05-05 16:39 | 37.62260 | -122.37884 | 35 ft | 169 kts | 297° |
| 2026-05-05 16:39 | 37.62819 | -122.39210 | 496 ft | 171 kts | 297° |
| 2026-05-05 16:39 | 37.63370 | -122.40551 | 1115 ft | 173 kts | 296° |
| 2026-05-05 16:40 | 37.63920 | -122.41906 | 1755 ft | 175 kts | 296° |
| 2026-05-05 16:40 | 37.64506 | -122.43341 | 2068 ft | 196 kts | 297° |
| 2026-05-05 16:40 | 37.65175 | -122.44968 | 2264 ft | 223 kts | 297° |
| 2026-05-05 16:40 | 37.65934 | -122.46796 | 2604 ft | 243 kts | 297° |
| 2026-05-05 16:41 | 37.66688 | -122.48728 | 3288 ft | 247 kts | 288° |
| 2026-05-05 16:41 | 37.66790 | -122.50898 | 3981 ft | 254 kts | 256° |
| 2026-05-05 16:41 | 37.65983 | -122.52900 | 4712 ft | 262 kts | 229° |
| 2026-05-05 16:41 | 37.64501 | -122.54214 | 5427 ft | 270 kts | 201° |
| 2026-05-05 16:42 | 37.62640 | -122.54511 | 6163 ft | 274 kts | 172° |
| 2026-05-05 16:42 | 37.60801 | -122.53853 | 6886 ft | 277 kts | 157° |
| 2026-05-05 16:42 | 37.59017 | -122.52883 | 7548 ft | 282 kts | 154° |
| 2026-05-05 16:42 | 37.57219 | -122.51862 | 8272 ft | 285 kts | 155° |
| 2026-05-05 16:43 | 37.55388 | -122.50850 | 8983 ft | 289 kts | 155° |
| 2026-05-05 16:43 | 37.53524 | -122.49850 | 9705 ft | 293 kts | 155° |
| 2026-05-05 16:43 | 37.51629 | -122.48849 | 10339 ft | 299 kts | 155° |
| 2026-05-05 16:43 | 37.49650 | -122.47793 | 10570 ft | 318 kts | 152° |
| 2026-05-05 16:44 | 37.47822 | -122.46137 | 10704 ft | 332 kts | 132° |
| 2026-05-05 16:44 | 37.46219 | -122.43945 | 10884 ft | 355 kts | 130° |
| 2026-05-05 16:44 | 37.44523 | -122.41568 | 11257 ft | 372 kts | 130° |
| 2026-05-05 16:44 | 37.42770 | -122.39121 | 11938 ft | 381 kts | 130° |
| 2026-05-05 16:45 | 37.40980 | -122.36640 | 12822 ft | 385 kts | 130° |
| 2026-05-05 16:45 | 37.39165 | -122.34143 | 13760 ft | 388 kts | 130° |
| 2026-05-05 16:45 | 37.37331 | -122.31633 | 14567 ft | 392 kts | 130° |
| 2026-05-05 16:45 | 37.35465 | -122.29091 | 15313 ft | 397 kts | 130° |
| 2026-05-05 16:46 | 37.33579 | -122.26530 | 16081 ft | 401 kts | 130° |
| 2026-05-05 16:46 | 37.31673 | -122.23947 | 16876 ft | 405 kts | 130° |
| 2026-05-05 16:46 | 37.29737 | -122.21326 | 17654 ft | 410 kts | 130° |
| 2026-05-05 16:46 | 37.27813 | -122.18723 | 18382 ft | 414 kts | 130° |
| 2026-05-05 16:47 | 37.25838 | -122.16054 | 19020 ft | 419 kts | 130° |
| 2026-05-05 16:47 | 37.23850 | -122.13369 | 19723 ft | 421 kts | 130° |
| 2026-05-05 16:47 | 37.21853 | -122.10676 | 20432 ft | 423 kts | 130° |
| 2026-05-05 16:47 | 37.19834 | -122.07955 | 21100 ft | 426 kts | 130° |
| 2026-05-05 16:48 | 37.17805 | -122.05221 | 21733 ft | 430 kts | 129° |
| 2026-05-05 16:48 | 37.15757 | -122.02463 | 22379 ft | 434 kts | 129° |
| 2026-05-05 16:48 | 37.13691 | -121.99686 | 23026 ft | 437 kts | 129° |
| 2026-05-05 16:48 | 37.11611 | -121.96892 | 23646 ft | 440 kts | 129° |
| 2026-05-05 16:49 | 37.09510 | -121.94072 | 24141 ft | 444 kts | 129° |
| 2026-05-05 16:49 | 37.07387 | -121.91223 | 24632 ft | 449 kts | 130° |
| 2026-05-05 16:49 | 37.05247 | -121.88355 | 25118 ft | 453 kts | 130° |
| 2026-05-05 16:49 | 37.03083 | -121.85459 | 25598 ft | 457 kts | 130° |
| 2026-05-05 16:50 | 37.00919 | -121.82567 | 26054 ft | 461 kts | 131° |
| 2026-05-05 16:50 | 36.98711 | -121.79617 | 26502 ft | 466 kts | 131° |
| 2026-05-05 16:50 | 36.96480 | -121.76639 | 26938 ft | 470 kts | 131° |
| 2026-05-05 16:50 | 36.94232 | -121.73640 | 27360 ft | 475 kts | 132° |
| 2026-05-05 16:51 | 36.91966 | -121.70621 | 27787 ft | 479 kts | 132° |
| 2026-05-05 16:51 | 36.89661 | -121.67553 | 28189 ft | 483 kts | 132° |
| 2026-05-05 16:51 | 36.87379 | -121.64519 | 28516 ft | 489 kts | 133° |
| 2026-05-05 16:51 | 36.85033 | -121.61402 | 28865 ft | 494 kts | 133° |
| 2026-05-05 16:52 | 36.82666 | -121.58260 | 29295 ft | 496 kts | 134° |
| 2026-05-05 16:52 | 36.80292 | -121.55112 | 29865 ft | 496 kts | 134° |
| 2026-05-05 16:52 | 36.77935 | -121.51989 | 30393 ft | 494 kts | 134° |
| 2026-05-05 16:52 | 36.75578 | -121.48868 | 30830 ft | 494 kts | 135° |
| 2026-05-05 16:53 | 36.73215 | -121.45743 | 31218 ft | 496 kts | 135° |
| 2026-05-05 16:53 | 36.70821 | -121.42581 | 31138 ft | 501 kts | 136° |
| 2026-05-05 16:53 | 36.66097 | -121.36348 | 31076 ft | 493 kts | 136° |
| 2026-05-05 16:54 | 36.61383 | -121.30140 | 31086 ft | 492 kts | 137° |
| 2026-05-05 16:54 | 36.56663 | -121.23938 | 31072 ft | 494 kts | 137° |
| 2026-05-05 16:55 | 36.51958 | -121.17765 | 31074 ft | 495 kts | 138° |
| 2026-05-05 16:55 | 36.47207 | -121.11542 | 31067 ft | 496 kts | 138° |
| 2026-05-05 16:56 | 36.42472 | -121.05342 | 31064 ft | 497 kts | 138° |
| 2026-05-05 16:56 | 36.37883 | -120.98863 | 31064 ft | 499 kts | 136° |
| 2026-05-05 16:57 | 36.33386 | -120.92266 | 31069 ft | 500 kts | 137° |
| 2026-05-05 16:57 | 36.28859 | -120.85699 | 31062 ft | 501 kts | 138° |
| 2026-05-05 16:58 | 36.24304 | -120.79168 | 31050 ft | 500 kts | 139° |
| 2026-05-05 16:58 | 36.19775 | -120.72703 | 31048 ft | 500 kts | 139° |
| 2026-05-05 16:59 | 36.15231 | -120.66226 | 31051 ft | 497 kts | 140° |
| 2026-05-05 16:59 | 36.10683 | -120.59754 | 31041 ft | 496 kts | 140° |
| 2026-05-05 17:00 | 36.06178 | -120.53349 | 31074 ft | 496 kts | 141° |
| 2026-05-05 17:00 | 36.01622 | -120.46900 | 31049 ft | 500 kts | 141° |
| 2026-05-05 17:01 | 35.97031 | -120.40401 | 31065 ft | 502 kts | 141° |
| 2026-05-05 17:01 | 35.92448 | -120.33925 | 31046 ft | 505 kts | 141° |
| 2026-05-05 17:02 | 35.88089 | -120.28059 | 31049 ft | 494 kts | 148° |
| 2026-05-05 17:08 | 35.84020 | -120.23918 | 31045 ft | 483 kts | 154° |
| 2026-05-05 17:09 | 35.78373 | -120.19601 | 31057 ft | 475 kts | 158° |
| 2026-05-05 17:09 | 35.72698 | -120.15394 | 31050 ft | 477 kts | 158° |
| 2026-05-05 17:10 | 35.67031 | -120.11131 | 31035 ft | 478 kts | 157° |
| 2026-05-05 17:10 | 35.61402 | -120.06881 | 31052 ft | 477 kts | 157° |
| 2026-05-05 17:11 | 35.55732 | -120.02598 | 31046 ft | 478 kts | 157° |
| 2026-05-05 17:11 | 35.50044 | -119.98310 | 31049 ft | 478 kts | 157° |
| 2026-05-05 17:12 | 35.44403 | -119.94066 | 31048 ft | 478 kts | 156° |
| 2026-05-05 17:12 | 35.38715 | -119.89793 | 31049 ft | 478 kts | 156° |
| 2026-05-05 17:13 | 35.33029 | -119.85528 | 31053 ft | 478 kts | 156° |
| 2026-05-05 17:13 | 35.27380 | -119.81215 | 31040 ft | 482 kts | 153° |
| 2026-05-05 17:14 | 35.22031 | -119.76269 | 31046 ft | 486 kts | 149° |
| 2026-05-05 17:14 | 35.16755 | -119.71144 | 31004 ft | 479 kts | 150° |
| 2026-05-05 17:15 | 35.14133 | -119.68642 | 30502 ft | 477 kts | 150° |
| 2026-05-05 17:15 | 35.11513 | -119.66178 | 30010 ft | 471 kts | 150° |
| 2026-05-05 17:15 | 35.08939 | -119.63779 | 29429 ft | 466 kts | 150° |
| 2026-05-05 17:15 | 35.06368 | -119.61391 | 28909 ft | 459 kts | 150° |
| 2026-05-05 17:16 | 35.03843 | -119.59048 | 28410 ft | 453 kts | 150° |
| 2026-05-05 17:16 | 35.01375 | -119.56758 | 27922 ft | 448 kts | 150° |
| 2026-05-05 17:16 | 34.98896 | -119.54460 | 27435 ft | 443 kts | 150° |
| 2026-05-05 17:16 | 34.96456 | -119.52198 | 26960 ft | 438 kts | 150° |
| 2026-05-05 17:17 | 34.94034 | -119.49953 | 26488 ft | 435 kts | 150° |
| 2026-05-05 17:17 | 34.91632 | -119.47729 | 26022 ft | 431 kts | 150° |
| 2026-05-05 17:17 | 34.89242 | -119.45552 | 25593 ft | 427 kts | 151° |
| 2026-05-05 17:17 | 34.86867 | -119.43431 | 25182 ft | 428 kts | 151° |
| 2026-05-05 17:18 | 34.84420 | -119.41285 | 24836 ft | 441 kts | 140° |
| 2026-05-05 17:18 | 34.81928 | -119.39053 | 24318 ft | 446 kts | 140° |
| 2026-05-05 17:18 | 34.79434 | -119.36813 | 23856 ft | 444 kts | 141° |
| 2026-05-05 17:18 | 34.76951 | -119.34591 | 23367 ft | 440 kts | 141° |
| 2026-05-05 17:19 | 34.74488 | -119.32395 | 22873 ft | 436 kts | 141° |
| 2026-05-05 17:19 | 34.72057 | -119.30261 | 22618 ft | 426 kts | 142° |
| 2026-05-05 17:19 | 34.69666 | -119.28180 | 22259 ft | 419 kts | 142° |
| 2026-05-05 17:19 | 34.67329 | -119.26145 | 21822 ft | 405 kts | 142° |
| 2026-05-05 17:20 | 34.65066 | -119.24172 | 21215 ft | 394 kts | 143° |
| 2026-05-05 17:20 | 34.62896 | -119.22293 | 20795 ft | 379 kts | 143° |
| 2026-05-05 17:20 | 34.60762 | -119.20454 | 20417 ft | 375 kts | 143° |
| 2026-05-05 17:20 | 34.58604 | -119.18594 | 20061 ft | 385 kts | 143° |
| 2026-05-05 17:21 | 34.56422 | -119.16714 | 19670 ft | 384 kts | 144° |
| 2026-05-05 17:21 | 34.54269 | -119.14830 | 19274 ft | 377 kts | 143° |
| 2026-05-05 17:21 | 34.52163 | -119.12959 | 18901 ft | 373 kts | 143° |
| 2026-05-05 17:22 | 34.47937 | -119.09203 | 18147 ft | 382 kts | 144° |
| 2026-05-05 17:22 | 34.45820 | -119.07330 | 17717 ft | 380 kts | 144° |
| 2026-05-05 17:22 | 34.43685 | -119.05446 | 17300 ft | 377 kts | 144° |
| 2026-05-05 17:22 | 34.41564 | -119.03603 | 16901 ft | 373 kts | 144° |
| 2026-05-05 17:23 | 34.39459 | -119.01785 | 16516 ft | 369 kts | 144° |
| 2026-05-05 17:23 | 34.37384 | -118.99993 | 16144 ft | 364 kts | 144° |
| 2026-05-05 17:23 | 34.35332 | -118.98219 | 15786 ft | 360 kts | 144° |
| 2026-05-05 17:23 | 34.33311 | -118.96453 | 15429 ft | 358 kts | 143° |
| 2026-05-05 17:24 | 34.31327 | -118.94652 | 15070 ft | 356 kts | 143° |
| 2026-05-05 17:24 | 34.29347 | -118.92840 | 14722 ft | 356 kts | 143° |
| 2026-05-05 17:24 | 34.27383 | -118.91051 | 14372 ft | 356 kts | 143° |
| 2026-05-05 17:24 | 34.25409 | -118.89259 | 14007 ft | 354 kts | 143° |
| 2026-05-05 17:25 | 34.23449 | -118.87465 | 13638 ft | 350 kts | 143° |
| 2026-05-05 17:25 | 34.22167 | -118.86285 | 13377 ft | 348 kts | 143° |
| 2026-05-05 17:25 | 34.19604 | -118.83926 | 12887 ft | 342 kts | 143° |
| 2026-05-05 17:25 | 34.17797 | -118.82267 | 12551 ft | 338 kts | 143° |
| 2026-05-05 17:26 | 34.15940 | -118.80534 | 12227 ft | 333 kts | 140° |
| 2026-05-05 17:26 | 34.14226 | -118.78717 | 12022 ft | 324 kts | 137° |
| 2026-05-05 17:26 | 34.12569 | -118.76876 | 11678 ft | 321 kts | 137° |
| 2026-05-05 17:26 | 34.10929 | -118.75049 | 11270 ft | 320 kts | 137° |
| 2026-05-05 17:27 | 34.09290 | -118.73244 | 10940 ft | 317 kts | 137° |
| 2026-05-05 17:27 | 34.07663 | -118.71469 | 10628 ft | 313 kts | 137° |
| 2026-05-05 17:27 | 34.06069 | -118.69736 | 10306 ft | 310 kts | 138° |
| 2026-05-05 17:27 | 34.04472 | -118.68004 | 10045 ft | 306 kts | 137° |
| 2026-05-05 17:28 | 34.03169 | -118.66011 | 9740 ft | 303 kts | 113° |
| 2026-05-05 17:28 | 34.02630 | -118.63587 | 9450 ft | 300 kts | 95° |
| 2026-05-05 17:28 | 34.02432 | -118.61102 | 9143 ft | 296 kts | 94° |
| 2026-05-05 17:28 | 34.02220 | -118.58644 | 8836 ft | 292 kts | 95° |
| 2026-05-05 17:29 | 34.02001 | -118.56235 | 8488 ft | 291 kts | 95° |
| 2026-05-05 17:29 | 34.01779 | -118.53831 | 8170 ft | 286 kts | 95° |
| 2026-05-05 17:29 | 34.01559 | -118.51470 | 7878 ft | 281 kts | 95° |
| 2026-05-05 17:29 | 34.01341 | -118.49156 | 7593 ft | 275 kts | 95° |
| 2026-05-05 17:30 | 34.01127 | -118.46881 | 7322 ft | 269 kts | 95° |
| 2026-05-05 17:30 | 34.01106 | -118.44682 | 7078 ft | 254 kts | 78° |
| 2026-05-05 17:30 | 34.01453 | -118.42633 | 6831 ft | 248 kts | 75° |
| 2026-05-05 17:30 | 34.01832 | -118.40662 | 6572 ft | 241 kts | 75° |
| 2026-05-05 17:31 | 34.02190 | -118.38716 | 6318 ft | 235 kts | 76° |
| 2026-05-05 17:31 | 34.02532 | -118.36803 | 6100 ft | 231 kts | 76° |
| 2026-05-05 17:31 | 34.02835 | -118.34932 | 6025 ft | 225 kts | 80° |
| 2026-05-05 17:31 | 34.03033 | -118.33051 | 6001 ft | 227 kts | 81° |
| 2026-05-05 17:32 | 34.03218 | -118.31146 | 6012 ft | 230 kts | 82° |
| 2026-05-05 17:32 | 34.03411 | -118.29222 | 5912 ft | 235 kts | 80° |
| 2026-05-05 17:32 | 34.03654 | -118.27224 | 5599 ft | 242 kts | 80° |
| 2026-05-05 17:32 | 34.03897 | -118.25250 | 5322 ft | 239 kts | 80° |
| 2026-05-05 17:33 | 34.04130 | -118.23299 | 5158 ft | 231 kts | 81° |
| 2026-05-05 17:33 | 34.04349 | -118.21392 | 5037 ft | 227 kts | 81° |
| 2026-05-05 17:33 | 34.04553 | -118.19528 | 4974 ft | 222 kts | 82° |
| 2026-05-05 17:33 | 34.04747 | -118.17670 | 4985 ft | 225 kts | 82° |
| 2026-05-05 17:34 | 34.04950 | -118.15765 | 4997 ft | 231 kts | 84° |
| 2026-05-05 17:34 | 34.04761 | -118.13845 | 4874 ft | 235 kts | 115° |
| 2026-05-05 17:34 | 34.03764 | -118.12316 | 4621 ft | 234 kts | 147° |
| 2026-05-05 17:34 | 34.02272 | -118.11673 | 4348 ft | 228 kts | 181° |
| 2026-05-05 17:35 | 34.00719 | -118.11851 | 4126 ft | 223 kts | 191° |
| 2026-05-05 17:35 | 33.99223 | -118.12256 | 3944 ft | 218 kts | 207° |
| 2026-05-05 17:35 | 33.98048 | -118.13373 | 3610 ft | 215 kts | 230° |
| 2026-05-05 17:35 | 33.97095 | -118.14730 | 3413 ft | 215 kts | 231° |
| 2026-05-05 17:36 | 33.96231 | -118.16173 | 3145 ft | 212 kts | 249° |
| 2026-05-05 17:36 | 33.95888 | -118.17858 | 3027 ft | 201 kts | 259° |
| 2026-05-05 17:36 | 33.95655 | -118.19557 | 3016 ft | 210 kts | 262° |
| 2026-05-05 17:36 | 33.95460 | -118.21322 | 2961 ft | 215 kts | 263° |
| 2026-05-05 17:37 | 33.95275 | -118.23136 | 2657 ft | 218 kts | 263° |
| 2026-05-05 17:37 | 33.95155 | -118.24330 | 2449 ft | 215 kts | 263° |
| 2026-05-05 17:37 | 33.94920 | -118.26650 | 2055 ft | 202 kts | 263° |
| 2026-05-05 17:37 | 33.94756 | -118.28255 | 1778 ft | 184 kts | 263° |
| 2026-05-05 17:38 | 33.94606 | -118.29732 | 1577 ft | 175 kts | 263° |
| 2026-05-05 17:38 | 33.94463 | -118.31134 | 1354 ft | 161 kts | 263° |
| 2026-05-05 17:38 | 33.94331 | -118.32436 | 1112 ft | 149 kts | 262° |
| 2026-05-05 17:38 | 33.94212 | -118.33604 | 945 ft | 145 kts | 263° |
| 2026-05-05 17:39 | 33.94083 | -118.34856 | 741 ft | 151 kts | 263° |
| 2026-05-05 17:39 | 33.93951 | -118.36127 | 485 ft | 153 kts | 263° |
| 2026-05-05 17:39 | 33.93828 | -118.37387 | 300 ft | 150 kts | 263° |
| 2026-05-05 17:39 | 33.93703 | -118.38617 | 124 ft | 145 kts | 263° |
| 2026-05-05 17:40 | 33.93593 | -118.39686 | 114 ft | 108 kts | 263° |
| 2026-05-05 17:40 | 33.93523 | -118.40364 | 113 ft | 55 kts | 263° |
| 2026-05-05 17:40 | 33.93493 | -118.40651 | 113 ft | 12 kts | 263° |
| 2026-05-05 17:40 | 33.93458 | -118.40716 | 113 ft | 10 kts | 199° |
| 2026-05-05 17:41 | 33.93384 | -118.40695 | 106 ft | 11 kts | 134° |
| 2026-05-05 17:41 | 33.93377 | -118.40591 | 108 ft | 13 kts | 83° |
| 2026-05-05 17:41 | 33.93388 | -118.40477 | 108 ft | 14 kts | 83° |
| 2026-05-05 17:41 | 33.93400 | -118.40359 | 105 ft | 15 kts | 83° |
| 2026-05-05 17:42 | 33.93414 | -118.40229 | 105 ft | 16 kts | 82° |
| 2026-05-05 17:42 | 33.93428 | -118.40094 | 106 ft | 16 kts | 83° |
| 2026-05-05 17:42 | 33.93442 | -118.39958 | 106 ft | 16 kts | 82° |
| 2026-05-05 17:42 | 33.93459 | -118.39822 | 107 ft | 16 kts | 81° |
| 2026-05-05 17:43 | 33.93469 | -118.39685 | 105 ft | 16 kts | 84° |
| 2026-05-05 17:43 | 33.93483 | -118.39548 | 105 ft | 16 kts | 82° |
| 2026-05-05 17:43 | 33.93497 | -118.39412 | 105 ft | 16 kts | 83° |
| 2026-05-05 17:43 | 33.93507 | -118.39275 | 107 ft | 16 kts | 103° |
| 2026-05-05 17:44 | 33.93433 | -118.39233 | 101 ft | 13 kts | 180° |
| 2026-05-05 17:44 | 33.93376 | -118.39233 | 101 ft | 7 kts | 180° |
| 2026-05-05 17:44 | 33.93355 | -118.39233 | 101 ft | 1 kts | 180° |
| 2026-05-05 17:44 | 33.93350 | -118.39233 | 101 ft | 0 kts | 180° |
| 2026-05-05 17:45 | 33.93348 | -118.39233 | 102 ft | 0 kts | 180° |